Time;durP1;ratioP1;P1;durP2;ratioP2;P2;SDS_P1;SDS_P2;PMS_P1;PMS_P2;Temp;Humidity;BMP_temperature;BMP_pressure;BME280_temperature;BME280_humidity;BME280_pressure;Samples;Min_cycle;Max_cycle;Signal;HPM_P1;HPM_P2
2023/05/02 00:01:44;;;;;;;6.80;5.97;;;;;;;11.14;54.13;94140.19;4981941;28;20025;-80
2023/05/02 00:04:09;;;;;;;6.63;5.88;;;;;;;10.73;55.41;94150.31;4987769;28;20430;-81
2023/05/02 00:06:35;;;;;;;6.13;5.53;;;;;;;10.65;55.95;94159.03;4990485;28;20038;-78
2023/05/02 00:09:00;;;;;;;6.35;5.75;;;;;;;10.40;56.69;94155.13;4980846;28;20564;-81
2023/05/02 00:11:25;;;;;;;6.40;5.60;;;;;;;10.06;58.23;94155.66;4982288;28;20456;-80
2023/05/02 00:13:51;;;;;;;6.85;6.25;;;;;;;9.54;60.00;94141.09;4981272;28;20052;-81
2023/05/02 00:16:17;;;;;;;8.48;6.30;;;;;;;9.60;60.73;94142.59;4980774;28;20025;-79
2023/05/02 00:18:42;;;;;;;7.13;6.43;;;;;;;9.40;61.38;94143.78;4982869;28;20050;-81
2023/05/02 00:21:08;;;;;;;7.97;6.30;;;;;;;10.03;59.68;94171.38;4979200;28;20120;-80
2023/05/02 00:23:33;;;;;;;9.85;6.85;;;;;;;9.79;60.03;94150.41;4982047;28;20372;-82
2023/05/02 00:25:59;;;;;;;7.13;6.18;;;;;;;9.58;61.10;94166.00;4980944;28;20049;-81
2023/05/02 00:28:25;;;;;;;9.13;6.10;;;;;;;9.54;61.75;94172.97;4979091;28;20027;-81
2023/05/02 00:30:52;;;;;;;8.38;6.80;;;;;;;9.23;63.00;94175.47;4982651;28;20038;-80
2023/05/02 00:33:18;;;;;;;8.05;6.80;;;;;;;8.90;64.75;94173.97;4979853;28;20130;-80
2023/05/02 00:35:43;;;;;;;9.27;7.53;;;;;;;8.95;64.75;94163.25;4982095;28;20617;-80
2023/05/02 00:38:09;;;;;;;8.45;6.97;;;;;;;8.95;64.85;94160.59;4979562;28;20113;-80
2023/05/02 00:40:50;;;;;;;8.95;7.15;;;;;;;9.26;64.19;94185.50;4983391;28;20041;-76
2023/05/02 00:43:15;;;;;;;6.78;6.13;;;;;;;9.09;64.93;94192.44;4982772;28;20038;-80
2023/05/02 00:45:42;;;;;;;12.43;7.43;;;;;;;9.33;63.71;94179.78;4995072;28;21124;-77
2023/05/02 00:48:09;;;;;;;10.43;7.72;;;;;;;9.75;61.51;94152.09;4981200;28;20143;-81
2023/05/02 00:50:44;;;;;;;9.45;7.63;;;;;;;10.04;60.79;94194.22;4980268;28;20034;-79
2023/05/02 00:53:10;;;;;;;7.45;6.70;;;;;;;10.31;60.18;94184.28;4979012;28;20127;-80
2023/05/02 00:55:35;;;;;;;8.02;5.88;;;;;;;10.66;58.51;94185.31;4996790;28;20383;-81
2023/05/02 00:58:04;;;;;;;7.15;5.68;;;;;;;11.04;56.39;94158.28;4979066;28;20565;-80
2023/05/02 01:00:42;;;;;;;8.52;5.68;;;;;;;11.40;55.10;94172.19;4982399;28;20120;-82
2023/05/02 01:03:31;;;;;;;8.10;6.30;;;;;;;11.30;54.55;94171.69;4978286;28;20049;-81
2023/05/02 01:06:07;;;;;;;7.70;6.00;;;;;;;10.71;56.45;94171.09;4977581;28;20042;-80
2023/05/02 01:09:13;;;;;;;7.43;6.20;;;;;;;10.20;59.09;94171.53;4986400;28;20205;-79
2023/05/02 01:11:43;;;;;;;7.10;6.18;;;;;;;9.75;61.48;94176.00;4986400;28;20647;-81
2023/05/02 01:14:10;;;;;;;10.43;6.50;;;;;;;9.24;63.98;94171.72;4980191;28;20050;-77
2023/05/02 01:16:40;;;;;;;10.40;6.43;;;;;;;9.03;65.17;94170.53;4980042;28;20030;-82
2023/05/02 01:19:11;;;;;;;7.25;6.55;;;;;;;8.88;66.19;94155.66;4979201;28;20049;-80
2023/05/02 01:21:38;;;;;;;8.35;6.78;;;;;;;9.02;66.62;94160.97;4980897;28;20039;-80
2023/05/02 01:24:28;;;;;;;8.20;7.38;;;;;;;8.95;67.15;94152.66;4985735;28;20034;-80
2023/05/02 01:26:53;;;;;;;7.93;7.13;;;;;;;8.85;67.09;94153.59;4984163;28;20460;-80
2023/05/02 01:29:22;;;;;;;7.55;6.85;;;;;;;8.92;67.13;94159.31;4980038;28;20053;-80
2023/05/02 01:31:49;;;;;;;7.00;6.30;;;;;;;8.85;67.27;94155.47;4980446;28;20066;-80
2023/05/02 01:34:17;;;;;;;7.75;6.65;;;;;;;8.83;67.16;94155.75;4980577;28;20023;-79
2023/05/02 01:36:49;;;;;;;8.07;6.90;;;;;;;8.72;68.08;94164.97;4996729;28;20041;-80
2023/05/02 01:39:20;;;;;;;7.85;7.05;;;;;;;8.94;66.97;94151.84;4994793;28;20062;-80
2023/05/02 01:41:50;;;;;;;11.13;7.47;;;;;;;9.11;66.59;94156.59;4978618;28;20035;-81
2023/05/02 01:44:17;;;;;;;8.18;6.07;;;;;;;9.12;66.91;94168.78;4980004;28;20053;-79
2023/05/02 01:46:43;;;;;;;8.50;6.47;;;;;;;8.93;67.19;94157.44;4978248;28;20034;-80
2023/05/02 01:49:09;;;;;;;8.52;7.60;;;;;;;8.79;67.60;94154.00;4979852;28;20069;-81
2023/05/02 01:51:39;;;;;;;8.73;7.85;;;;;;;8.56;69.08;94159.16;4991001;28;20498;-76
2023/05/02 01:54:07;;;;;;;8.38;7.53;;;;;;;8.50;69.71;94162.97;4994892;28;20034;-78
2023/05/02 01:56:35;;;;;;;7.93;7.13;;;;;;;8.48;70.00;94151.09;4978009;28;20042;-80
2023/05/02 01:59:05;;;;;;;15.70;7.95;;;;;;;8.19;70.66;94146.00;4978834;28;20049;-80
2023/05/02 02:01:31;;;;;;;9.88;6.95;;;;;;;8.59;69.85;94165.75;4978020;28;20050;-79
2023/05/02 02:03:59;;;;;;;8.70;7.63;;;;;;;8.49;69.52;94150.00;4979280;28;20073;-80
2023/05/02 02:06:26;;;;;;;8.38;6.55;;;;;;;8.66;68.91;94162.72;4978422;28;20932;-79
2023/05/02 02:08:52;;;;;;;8.50;7.15;;;;;;;9.07;67.03;94129.03;4977753;28;20037;-81
2023/05/02 02:11:25;;;;;;;7.97;7.18;;;;;;;9.47;65.36;94158.53;4990055;28;20630;-80
2023/05/02 02:14:00;;;;;;;8.15;7.30;;;;;;;9.39;66.16;94154.69;4982062;28;20552;-80
2023/05/02 02:16:33;;;;;;;7.22;6.53;;;;;;;9.77;64.55;94140.09;4974365;28;20026;-79
2023/05/02 02:19:09;;;;;;;10.63;7.07;;;;;;;10.05;63.11;94143.44;4979526;28;20056;-80
2023/05/02 02:21:37;;;;;;;7.90;7.10;;;;;;;9.77;64.39;94152.59;4981802;28;20538;-76
2023/05/02 02:24:05;;;;;;;9.68;7.80;;;;;;;10.38;62.12;94164.50;4975632;28;20460;-79
2023/05/02 02:26:30;;;;;;;8.07;6.57;;;;;;;9.89;62.79;94142.22;4977810;28;20368;-80
2023/05/02 02:28:56;;;;;;;6.57;6.07;;;;;;;10.12;62.29;94135.06;4979862;28;20037;-80
2023/05/02 02:31:24;;;;;;;7.82;6.97;;;;;;;10.35;61.54;94151.78;4978966;28;20335;-77
2023/05/02 02:33:50;;;;;;;8.93;6.22;;;;;;;10.81;59.27;94149.56;4978161;28;20030;-80
2023/05/02 02:36:27;;;;;;;8.32;6.30;;;;;;;10.85;59.57;94171.03;4980117;28;20356;-81
2023/05/02 02:39:17;;;;;;;7.40;6.43;;;;;;;11.01;58.76;94162.34;4978593;28;20045;-80
2023/05/02 02:42:01;;;;;;;7.60;5.80;;;;;;;11.28;57.42;94163.25;4979464;28;20112;-80
2023/05/02 02:45:00;;;;;;;8.82;6.60;;;;;;;11.37;56.74;94172.03;4977248;28;20034;-80
2023/05/02 02:47:32;;;;;;;7.25;5.70;;;;;;;11.40;56.52;94166.88;4981457;28;20053;-80
2023/05/02 02:50:30;;;;;;;7.22;6.53;;;;;;;11.47;55.74;94174.41;4979698;28;20034;-80
2023/05/02 02:53:03;;;;;;;12.52;6.60;;;;;;;11.30;56.05;94171.69;4968083;28;20045;-80
2023/05/02 02:55:45;;;;;;;6.90;5.90;;;;;;;11.30;55.67;94161.81;4981896;28;20532;-80
2023/05/02 02:58:39;;;;;;;6.28;5.60;;;;;;;11.12;55.89;94181.50;4980974;28;20530;-81
2023/05/02 03:01:11;;;;;;;8.10;6.97;;;;;;;11.00;56.63;94179.41;4979916;28;20057;-76
2023/05/02 03:03:39;;;;;;;7.57;6.78;;;;;;;10.96;56.68;94199.72;4982255;28;20034;-80
2023/05/02 03:06:05;;;;;;;8.23;6.85;;;;;;;11.00;56.62;94182.06;4977903;28;20038;-81
2023/05/02 03:08:41;;;;;;;7.07;6.38;;;;;;;11.04;56.70;94191.03;4979658;28;20038;-81
2023/05/02 03:11:08;;;;;;;6.47;5.88;;;;;;;11.08;56.58;94191.97;4981250;28;20123;-81
2023/05/02 03:13:34;;;;;;;7.70;7.00;;;;;;;11.23;55.71;94214.75;4979958;28;20517;-80
2023/05/02 03:16:34;;;;;;;6.60;5.97;;;;;;;11.26;55.36;94202.69;4989042;28;20046;-81
2023/05/02 03:19:02;;;;;;;8.10;6.70;;;;;;;11.30;55.12;94199.09;4991652;28;20740;-80
2023/05/02 03:21:28;;;;;;;12.93;7.40;;;;;;;11.14;55.74;94193.41;4984005;28;20035;-79
2023/05/02 03:23:54;;;;;;;7.13;6.20;;;;;;;11.32;55.33;94206.78;4984604;28;20557;-81
2023/05/02 03:26:20;;;;;;;7.68;6.90;;;;;;;11.41;55.59;94207.59;4983776;28;20133;-81
2023/05/02 03:28:45;;;;;;;7.03;6.32;;;;;;;11.38;55.65;94221.53;4982185;28;20140;-80
2023/05/02 03:31:12;;;;;;;8.57;7.22;;;;;;;11.49;55.20;94204.97;4981914;28;20060;-80
2023/05/02 03:33:37;;;;;;;7.93;6.90;;;;;;;11.61;55.33;94217.72;4983787;28;20035;-79
2023/05/02 03:36:03;;;;;;;7.68;6.97;;;;;;;11.61;54.99;94212.41;4979602;28;20038;-81
2023/05/02 03:38:29;;;;;;;7.40;6.47;;;;;;;11.20;56.66;94209.25;4984989;28;20497;-80
2023/05/02 03:40:58;;;;;;;6.53;5.93;;;;;;;11.38;55.80;94208.22;4978389;28;20022;-80
2023/05/02 03:43:23;;;;;;;7.88;7.18;;;;;;;11.25;56.21;94211.78;4980962;28;20658;-80
2023/05/02 03:45:48;;;;;;;8.18;7.38;;;;;;;11.44;55.70;94215.75;4981202;28;20030;-81
2023/05/02 03:48:14;;;;;;;8.10;7.10;;;;;;;11.47;55.68;94214.38;4982320;28;20035;-78
2023/05/02 03:50:39;;;;;;;7.68;6.95;;;;;;;11.11;55.48;94175.38;4980489;28;20041;-80
2023/05/02 03:53:05;;;;;;;7.10;6.50;;;;;;;10.87;57.56;94217.53;4981433;28;20034;-79
2023/05/02 03:55:31;;;;;;;7.43;6.72;;;;;;;11.38;56.03;94211.69;4982571;28;20030;-79
2023/05/02 03:57:56;;;;;;;9.65;7.22;;;;;;;11.68;55.04;94218.06;4981212;28;20121;-80
2023/05/02 04:00:21;;;;;;;7.57;6.88;;;;;;;11.73;54.83;94211.81;4980506;28;20042;-80
2023/05/02 04:02:47;;;;;;;7.60;6.55;;;;;;;11.57;54.65;94179.50;4978589;28;20360;-81
2023/05/02 04:05:12;;;;;;;8.43;7.22;;;;;;;11.62;54.80;94205.19;4994234;28;20387;-81
2023/05/02 04:07:38;;;;;;;7.85;7.03;;;;;;;11.85;54.98;94219.97;4978600;28;20026;-82
2023/05/02 04:10:03;;;;;;;8.32;7.53;;;;;;;12.02;54.36;94215.47;4980866;28;20508;-82
2023/05/02 04:12:29;;;;;;;9.27;7.45;;;;;;;11.88;54.90;94201.47;4978627;28;20442;-80
2023/05/02 04:14:55;;;;;;;9.23;7.80;;;;;;;11.82;55.22;94217.94;4978916;28;20056;-81
2023/05/02 04:17:20;;;;;;;10.18;8.20;;;;;;;11.18;56.28;94183.72;4983046;28;20046;-81
2023/05/02 04:19:46;;;;;;;7.05;6.40;;;;;;;11.56;56.84;94216.00;4988583;28;20414;-81
2023/05/02 04:22:11;;;;;;;7.78;7.07;;;;;;;11.77;55.26;94202.88;4987764;28;20380;-81
2023/05/02 04:24:36;;;;;;;8.30;7.40;;;;;;;11.70;55.55;94201.75;4982389;28;20039;-81
2023/05/02 04:27:02;;;;;;;8.23;7.22;;;;;;;10.64;59.22;94219.44;4982598;28;20070;-80
2023/05/02 04:29:27;;;;;;;8.50;7.47;;;;;;;10.60;59.56;94197.19;4980813;28;20038;-79
2023/05/02 04:31:53;;;;;;;8.57;7.80;;;;;;;10.68;59.08;94215.06;4983114;28;20547;-80
2023/05/02 04:34:18;;;;;;;10.30;7.95;;;;;;;10.21;61.26;94221.75;4983328;28;20030;-79
2023/05/02 04:36:45;;;;;;;8.73;7.82;;;;;;;10.18;61.59;94211.69;4981906;28;20097;-77
2023/05/02 04:39:11;;;;;;;9.73;7.68;;;;;;;10.17;61.46;94194.16;4983689;28;20038;-80
2023/05/02 04:41:36;;;;;;;10.32;9.20;;;;;;;9.69;63.42;94203.75;4983585;28;20972;-80
2023/05/02 04:44:05;;;;;;;9.73;7.40;;;;;;;9.33;64.87;94216.97;4984869;28;20051;-78
2023/05/02 04:46:30;;;;;;;13.35;8.35;;;;;;;9.22;65.42;94204.94;4980748;28;20057;-80
2023/05/02 04:48:55;;;;;;;10.95;8.88;;;;;;;9.37;64.76;94224.03;4978715;28;20034;-79
2023/05/02 04:51:21;;;;;;;12.25;8.05;;;;;;;9.22;65.46;94197.78;4981716;28;20040;-80
2023/05/02 04:53:46;;;;;;;10.25;7.88;;;;;;;9.30;65.54;94201.59;4978635;28;20138;-80
2023/05/02 04:56:11;;;;;;;20.73;9.43;;;;;;;9.08;66.01;94220.84;4978518;28;20061;-80
2023/05/02 04:58:37;;;;;;;11.68;8.68;;;;;;;8.52;66.02;94123.69;4978701;28;20026;-80
2023/05/02 05:01:02;;;;;;;11.95;8.02;;;;;;;9.06;66.10;94222.19;4980455;28;20074;-80
2023/05/02 05:03:29;;;;;;;10.68;7.45;;;;;;;9.17;65.28;94203.19;4981774;28;20034;-80
2023/05/02 05:05:55;;;;;;;11.38;6.70;;;;;;;9.34;65.77;94213.22;4983752;28;20092;-80
2023/05/02 05:08:20;;;;;;;10.40;6.80;;;;;;;9.19;64.94;94186.97;4981003;28;20038;-80
2023/05/02 05:10:46;;;;;;;10.75;7.47;;;;;;;9.47;64.59;94216.94;4978655;28;20037;-81
2023/05/02 05:13:12;;;;;;;11.85;6.90;;;;;;;9.39;64.40;94190.00;4978537;28;20064;-80
2023/05/02 05:15:39;;;;;;;9.35;6.38;;;;;;;9.60;63.75;94218.81;4977253;28;20088;-77
2023/05/02 05:18:05;;;;;;;8.73;6.55;;;;;;;9.51;63.68;94220.59;4996648;28;20172;-80
2023/05/02 05:20:30;;;;;;;9.52;6.53;;;;;;;9.27;64.06;94210.16;4981466;28;20043;-80
2023/05/02 05:22:56;;;;;;;8.18;6.82;;;;;;;9.32;64.57;94216.16;4986279;28;20510;-80
2023/05/02 05:25:21;;;;;;;8.07;6.75;;;;;;;9.54;64.79;94225.28;4985423;28;20948;-81
2023/05/02 05:27:47;;;;;;;8.45;7.00;;;;;;;9.60;64.15;94226.78;4977975;28;20045;-81
2023/05/02 05:30:12;;;;;;;14.38;7.55;;;;;;;9.39;63.57;94197.97;4980568;28;20630;-82
2023/05/02 05:32:37;;;;;;;7.07;6.35;;;;;;;9.55;63.53;94209.06;4979435;28;20117;-81
2023/05/02 05:35:03;;;;;;;7.95;6.43;;;;;;;9.80;62.97;94226.34;4978424;28;20046;-80
2023/05/02 05:37:29;;;;;;;12.13;7.70;;;;;;;9.86;63.01;94214.53;4979300;28;20034;-81
2023/05/02 05:39:54;;;;;;;14.02;6.60;;;;;;;9.91;62.51;94198.50;4980541;28;20034;-81
2023/05/02 05:42:20;;;;;;;19.38;7.05;;;;;;;9.98;62.06;94233.41;4977052;28;20042;-81
2023/05/02 05:44:45;;;;;;;12.25;6.78;;;;;;;9.91;62.73;94225.06;4979046;28;20044;-81
2023/05/02 05:47:10;;;;;;;11.25;7.40;;;;;;;9.75;62.38;94234.44;4974911;28;20035;-80
2023/05/02 05:49:36;;;;;;;9.02;7.30;;;;;;;10.03;62.62;94233.28;4980648;28;20854;-81
2023/05/02 05:52:01;;;;;;;7.75;6.85;;;;;;;9.89;61.63;94208.63;4977144;28;20164;-81
2023/05/02 05:54:27;;;;;;;7.55;6.75;;;;;;;9.88;62.48;94207.03;4985054;28;20030;-81
2023/05/02 05:56:53;;;;;;;9.60;6.30;;;;;;;10.45;60.96;94223.34;4978057;28;20034;-81
2023/05/02 05:59:19;;;;;;;8.65;6.75;;;;;;;10.38;60.92;94223.78;4991804;28;20125;-80
2023/05/02 06:01:44;;;;;;;7.55;6.68;;;;;;;10.31;60.15;94223.38;4978259;28;20141;-81
2023/05/02 06:04:10;;;;;;;7.72;6.82;;;;;;;10.51;60.08;94246.88;4980334;28;20398;-81
2023/05/02 06:06:35;;;;;;;10.40;6.95;;;;;;;10.66;59.37;94237.75;4978453;28;20057;-80
2023/05/02 06:09:01;;;;;;;6.72;6.05;;;;;;;10.43;59.45;94221.00;4976782;28;20038;-81
2023/05/02 06:11:26;;;;;;;7.38;6.35;;;;;;;10.66;58.39;94232.44;4980675;28;20034;-78
2023/05/02 06:13:52;;;;;;;7.78;6.57;;;;;;;10.64;58.51;94248.69;4981470;28;20042;-81
2023/05/02 06:16:18;;;;;;;9.45;6.07;;;;;;;10.70;58.77;94260.00;4979230;28;20374;-82
2023/05/02 06:18:45;;;;;;;6.70;5.95;;;;;;;10.90;58.38;94253.41;4974996;28;20042;-80
2023/05/02 06:21:10;;;;;;;13.25;6.80;;;;;;;10.75;57.78;94254.56;4977089;28;20045;-82
2023/05/02 06:23:36;;;;;;;6.93;6.20;;;;;;;11.06;57.08;94247.38;4979080;28;20069;-81
2023/05/02 06:26:02;;;;;;;7.95;6.20;;;;;;;11.17;55.96;94237.25;4983806;28;21294;-80
2023/05/02 06:28:28;;;;;;;9.23;5.82;;;;;;;11.30;55.69;94223.06;4981589;28;20480;-80
2023/05/02 06:31:02;;;;;;;9.52;6.00;;;;;;;11.46;55.17;94240.22;4974096;28;20409;-82
2023/05/02 06:33:28;;;;;;;7.97;5.22;;;;;;;11.52;53.88;94251.56;4992670;28;20048;-81
2023/05/02 06:35:54;;;;;;;8.32;5.53;;;;;;;11.13;53.93;94236.31;4977885;28;20053;-81
2023/05/02 06:38:20;;;;;;;7.18;5.45;;;;;;;11.16;54.36;94257.78;4977109;28;20074;-81
2023/05/02 06:40:45;;;;;;;5.47;4.72;;;;;;;11.25;54.46;94260.47;4974108;28;20146;-80
2023/05/02 06:43:11;;;;;;;9.35;5.30;;;;;;;11.47;53.74;94233.00;4976212;28;20022;-81
2023/05/02 06:45:37;;;;;;;5.45;4.95;;;;;;;11.55;53.10;94245.59;4975303;28;20196;-82
2023/05/02 06:48:03;;;;;;;10.32;5.10;;;;;;;11.67;51.92;94240.47;4980327;28;20043;-80
2023/05/02 06:50:28;;;;;;;10.93;5.13;;;;;;;11.82;51.51;94225.94;4981402;28;20050;-81
2023/05/02 06:52:54;;;;;;;5.38;4.88;;;;;;;12.24;51.57;94253.75;4982786;28;20319;-81
2023/05/02 06:55:20;;;;;;;6.00;4.68;;;;;;;11.89;50.70;94242.25;4980988;28;20025;-81
2023/05/02 06:57:45;;;;;;;6.47;5.05;;;;;;;11.90;51.34;94241.16;4983289;28;20477;-80
2023/05/02 07:00:11;;;;;;;11.90;4.60;;;;;;;11.81;50.80;94241.13;4980210;28;20046;-82
2023/05/02 07:02:37;;;;;;;6.03;5.28;;;;;;;11.83;51.34;94235.50;4975672;28;20042;-82
2023/05/02 07:05:03;;;;;;;12.65;5.38;;;;;;;11.98;51.07;94246.50;4977122;28;20047;-82
2023/05/02 07:07:28;;;;;;;11.45;5.93;;;;;;;12.17;50.82;94253.44;4985208;28;20025;-81
2023/05/02 07:09:54;;;;;;;6.68;4.18;;;;;;;11.90;50.95;94249.94;4975262;28;20026;-82
2023/05/02 07:12:20;;;;;;;5.38;4.88;;;;;;;12.15;50.18;94240.41;4974959;28;20042;-81
2023/05/02 07:14:46;;;;;;;5.03;4.25;;;;;;;12.41;49.62;94243.13;4969576;28;20047;-81
2023/05/02 07:17:11;;;;;;;4.38;3.97;;;;;;;12.24;49.25;94232.41;4966907;28;20039;-81
2023/05/02 07:19:37;;;;;;;5.40;3.90;;;;;;;12.22;48.97;94245.31;4960377;28;20027;-81
2023/05/02 07:22:02;;;;;;;7.47;4.18;;;;;;;12.50;49.71;94254.56;4963720;28;20543;-82
2023/05/02 07:24:28;;;;;;;7.75;4.93;;;;;;;12.53;49.16;94243.25;4961696;28;20047;-80
2023/05/02 07:26:53;;;;;;;11.15;4.65;;;;;;;12.58;48.38;94242.31;4965379;28;20042;-82
2023/05/02 07:29:18;;;;;;;6.30;3.85;;;;;;;12.54;48.19;94236.03;4967181;28;20046;-81
2023/05/02 07:31:44;;;;;;;6.82;4.43;;;;;;;12.38;48.09;94235.72;4968782;28;20117;-81
2023/05/02 07:34:09;;;;;;;6.30;4.30;;;;;;;12.78;48.50;94241.69;4962442;28;20625;-81
2023/05/02 07:36:34;;;;;;;4.20;3.80;;;;;;;12.94;46.83;94260.69;4963678;28;20130;-78
2023/05/02 07:39:00;;;;;;;8.18;4.10;;;;;;;12.44;47.11;94253.94;4961327;28;20042;-80
2023/05/02 07:41:25;;;;;;;12.93;3.80;;;;;;;12.65;47.69;94248.78;4965270;28;20035;-81
2023/05/02 07:43:51;;;;;;;5.35;4.10;;;;;;;12.78;47.59;94244.38;4962115;28;20035;-80
2023/05/02 07:46:16;;;;;;;7.70;3.88;;;;;;;12.97;46.29;94265.38;4967247;28;20589;-82
2023/05/02 07:48:41;;;;;;;7.10;3.58;;;;;;;12.88;46.76;94263.53;4962967;28;20380;-81
2023/05/02 07:51:09;;;;;;;6.60;4.10;;;;;;;13.10;46.74;94259.88;4964574;28;20043;-81
2023/05/02 07:53:35;;;;;;;4.97;4.38;;;;;;;13.07;47.41;94262.38;4960703;28;20042;-77
2023/05/02 07:56:03;;;;;;;5.88;3.83;;;;;;;13.00;46.85;94275.44;4964255;28;20043;-80
2023/05/02 07:58:28;;;;;;;9.10;3.63;;;;;;;13.20;47.87;94261.44;4959939;28;20027;-81
2023/05/02 08:00:54;;;;;;;7.85;3.90;;;;;;;13.01;45.88;94263.63;4962713;28;20441;-81
2023/05/02 08:03:19;;;;;;;6.65;4.15;;;;;;;13.18;46.68;94251.06;4958868;28;20042;-81
2023/05/02 08:05:45;;;;;;;7.25;3.92;;;;;;;13.13;46.77;94264.59;4961526;28;20035;-80
2023/05/02 08:08:10;;;;;;;4.32;3.60;;;;;;;13.02;46.83;94252.66;4961246;28;20441;-80
2023/05/02 08:10:36;;;;;;;5.40;3.60;;;;;;;12.74;47.01;94230.88;4960458;28;20034;-81
2023/05/02 08:13:01;;;;;;;6.95;3.42;;;;;;;13.12;47.05;94263.00;4956078;28;20684;-82
2023/05/02 08:15:26;;;;;;;5.50;4.07;;;;;;;13.32;46.26;94264.22;4956135;28;20046;-81
2023/05/02 08:17:52;;;;;;;7.20;4.57;;;;;;;12.89;47.00;94254.41;4959359;28;20138;-81
2023/05/02 08:20:18;;;;;;;14.00;4.47;;;;;;;12.98;47.22;94261.63;4961675;28;20479;-81
2023/05/02 08:22:43;;;;;;;8.52;3.60;;;;;;;12.94;46.50;94268.69;4962813;28;20042;-81
2023/05/02 08:25:08;;;;;;;5.35;3.55;;;;;;;12.53;47.49;94251.25;4958906;28;20563;-81
2023/05/02 08:27:35;;;;;;;9.43;4.20;;;;;;;12.94;46.95;94260.69;4960200;28;20414;-77
2023/05/02 08:30:00;;;;;;;8.93;5.07;;;;;;;12.79;47.16;94249.41;4964306;28;20310;-81
2023/05/02 08:32:26;;;;;;;9.07;3.42;;;;;;;12.61;47.43;94269.19;4965612;28;20608;-81
2023/05/02 08:34:58;;;;;;;7.43;3.83;;;;;;;12.76;48.12;94262.59;4965148;28;20015;-81
2023/05/02 08:37:23;;;;;;;5.45;3.72;;;;;;;12.60;47.16;94243.63;4974887;28;20026;-81
2023/05/02 08:39:48;;;;;;;4.35;3.85;;;;;;;12.83;46.98;94247.66;4961054;28;20038;-81
2023/05/02 08:42:14;;;;;;;7.88;4.25;;;;;;;13.13;46.39;94255.78;4959742;28;20513;-81
2023/05/02 08:44:39;;;;;;;6.07;3.97;;;;;;;13.14;46.86;94260.03;4960018;28;20470;-82
2023/05/02 08:47:06;;;;;;;3.90;3.33;;;;;;;13.28;46.21;94244.59;4963389;28;20046;-81
2023/05/02 08:49:35;;;;;;;9.00;4.38;;;;;;;13.50;45.75;94259.59;4974991;28;20565;-80
2023/05/02 08:52:02;;;;;;;7.05;3.53;;;;;;;13.83;46.23;94249.91;4962199;28;20058;-81
2023/05/02 08:54:28;;;;;;;6.28;4.00;;;;;;;13.80;45.44;94242.50;4972950;28;20166;-81
2023/05/02 08:56:53;;;;;;;5.00;3.28;;;;;;;13.92;45.53;94252.53;4964980;28;20229;-81
2023/05/02 08:59:19;;;;;;;5.78;3.17;;;;;;;14.00;44.48;94247.13;4961532;28;20039;-78
2023/05/02 09:01:50;;;;;;;4.72;3.22;;;;;;;14.22;43.56;94248.72;4958698;28;20464;-78
2023/05/02 09:04:19;;;;;;;5.18;3.88;;;;;;;14.29;44.10;94254.34;4959282;28;20791;-79
2023/05/02 09:06:44;;;;;;;4.43;3.47;;;;;;;14.51;43.56;94246.00;4961197;28;20041;-81
2023/05/02 09:09:10;;;;;;;3.78;3.38;;;;;;;14.44;42.83;94229.69;4956820;28;20043;-81
2023/05/02 09:11:36;;;;;;;9.57;3.08;;;;;;;14.71;43.13;94219.56;4958621;28;20121;-81
2023/05/02 09:14:14;;;;;;;5.80;3.40;;;;;;;14.92;42.84;94242.50;4957983;28;20042;-79
2023/05/02 09:16:39;;;;;;;4.43;3.35;;;;;;;14.50;42.21;94230.25;4951275;28;20512;-79
2023/05/02 09:19:04;;;;;;;9.18;3.78;;;;;;;14.52;43.08;94233.41;4962437;28;20034;-81
2023/05/02 09:21:39;;;;;;;3.70;3.20;;;;;;;14.53;42.27;94227.75;4962316;28;20062;-81
2023/05/02 09:24:21;;;;;;;4.37;2.77;;;;;;;14.54;42.52;94232.00;4959202;28;20035;-81
2023/05/02 09:26:59;;;;;;;7.72;3.28;;;;;;;14.62;42.55;94245.63;4958709;28;20030;-82
2023/05/02 09:29:27;;;;;;;6.38;2.90;;;;;;;14.32;41.68;94245.69;4956267;28;20516;-81
2023/05/02 09:31:52;;;;;;;4.25;2.85;;;;;;;14.67;41.84;94240.84;4958438;28;20062;-81
2023/05/02 09:34:18;;;;;;;5.72;2.85;;;;;;;14.39;42.52;94226.41;4964978;28;20014;-82
2023/05/02 09:36:46;;;;;;;8.52;2.95;;;;;;;14.63;41.89;94228.44;4961308;28;20041;-80
2023/05/02 09:39:17;;;;;;;5.07;3.05;;;;;;;14.16;41.42;94194.63;4955857;28;20160;-82
2023/05/02 09:41:44;;;;;;;6.43;2.70;;;;;;;14.70;42.44;94228.72;4959375;28;20057;-80
2023/05/02 09:44:15;;;;;;;4.28;2.70;;;;;;;14.80;40.79;94229.09;4959255;28;20050;-81
2023/05/02 09:46:46;;;;;;;2.97;2.72;;;;;;;14.94;41.07;94223.44;4958051;28;20120;-81
2023/05/02 09:49:13;;;;;;;4.18;2.92;;;;;;;14.29;41.22;94214.22;4958404;28;20031;-80
2023/05/02 09:51:39;;;;;;;8.15;2.85;;;;;;;14.10;41.07;94206.63;4955843;28;20039;-82
2023/05/02 09:54:04;;;;;;;4.75;2.92;;;;;;;14.13;42.04;94215.91;4956599;28;20045;-81
2023/05/02 09:56:30;;;;;;;4.80;3.33;;;;;;;14.19;41.88;94219.94;4956449;28;20102;-82
2023/05/02 09:59:15;;;;;;;5.68;3.15;;;;;;;14.60;41.82;94219.19;4958301;28;20093;-82
2023/05/02 10:01:41;;;;;;;5.05;3.13;;;;;;;14.70;40.81;94207.28;4958291;28;20042;-81
2023/05/02 10:04:15;;;;;;;4.28;2.60;;;;;;;14.81;40.93;94219.16;4959772;28;20884;-81
2023/05/02 10:06:42;;;;;;;4.35;2.92;;;;;;;14.83;40.44;94211.56;4960060;28;20183;-82
2023/05/02 10:09:09;;;;;;;2.88;2.65;;;;;;;15.03;40.05;94210.75;4971559;28;20035;-81
2023/05/02 10:11:38;;;;;;;4.75;2.83;;;;;;;15.08;40.21;94209.75;4958646;28;20928;-80
2023/05/02 10:14:05;;;;;;;5.30;3.20;;;;;;;15.12;40.56;94206.06;4951032;28;20061;-81
2023/05/02 10:16:33;;;;;;;9.27;3.65;;;;;;;15.05;39.36;94203.19;4960641;28;20557;-80
2023/05/02 10:19:06;;;;;;;3.80;2.55;;;;;;;14.55;41.70;94177.34;4962216;28;20038;-81
2023/05/02 10:21:33;;;;;;;6.20;2.90;;;;;;;14.82;40.59;94204.66;4958881;28;20127;-80
2023/05/02 10:24:02;;;;;;;42.17;4.68;;;;;;;14.95;40.04;94199.03;4955986;28;20034;-80
2023/05/02 10:26:27;;;;;;;5.05;3.40;;;;;;;15.02;39.87;94193.09;4969274;28;20030;-81
2023/05/02 10:28:55;;;;;;;5.95;2.70;;;;;;;14.77;38.87;94202.19;4956324;28;20070;-81
2023/05/02 10:31:21;;;;;;;3.30;2.70;;;;;;;14.81;40.03;94182.47;4958004;28;20038;-81
2023/05/02 10:33:50;;;;;;;6.45;3.33;;;;;;;15.12;38.63;94186.53;4957119;28;20102;-79
2023/05/02 10:36:20;;;;;;;2.78;2.47;;;;;;;15.24;37.92;94184.69;4957273;28;20031;-81
2023/05/02 10:38:47;;;;;;;2.67;2.17;;;;;;;14.93;37.98;94141.53;4961306;28;20041;-80
2023/05/02 10:41:16;;;;;;;4.30;2.30;;;;;;;15.34;37.48;94178.88;4952454;28;20397;-81
2023/05/02 10:43:46;;;;;;;3.53;2.17;;;;;;;15.56;38.30;94175.00;4956517;28;20485;-81
2023/05/02 10:46:41;;;;;;;4.20;2.42;;;;;;;15.37;37.53;94175.53;4954098;28;20045;-81
2023/05/02 10:49:09;;;;;;;7.10;2.35;;;;;;;15.29;36.80;94168.38;4963585;28;20034;-81
2023/05/02 10:51:36;;;;;;;5.38;2.10;;;;;;;15.06;36.55;94151.16;4959430;28;20046;-79
2023/05/02 10:54:25;;;;;;;3.25;1.73;;;;;;;15.18;36.49;94155.75;4956345;28;20512;-80
2023/05/02 10:57:02;;;;;;;5.13;2.47;;;;;;;15.48;37.23;94167.88;4949324;28;20051;-76
2023/05/02 10:59:33;;;;;;;3.47;1.75;;;;;;;15.37;36.46;94156.78;4974416;28;20050;-81
2023/05/02 11:02:00;;;;;;;5.55;2.08;;;;;;;15.43;37.06;94166.16;4973956;28;20984;-82
2023/05/02 11:04:26;;;;;;;4.15;2.20;;;;;;;15.20;36.49;94140.91;4974106;28;20129;-80
2023/05/02 11:07:01;;;;;;;3.85;2.08;;;;;;;15.34;36.30;94168.16;4975121;28;20034;-80
2023/05/02 11:09:26;;;;;;;4.35;2.38;;;;;;;15.30;36.71;94161.13;4965131;28;20050;-80
2023/05/02 11:11:53;;;;;;;2.38;2.00;;;;;;;15.35;36.33;94163.59;4975962;28;20052;-80
2023/05/02 11:14:25;;;;;;;11.23;2.83;;;;;;;15.32;36.02;94165.03;4971182;28;20086;-80
2023/05/02 11:16:57;;;;;;;4.72;2.30;;;;;;;15.57;37.06;94165.06;4967294;28;20101;-80
2023/05/02 11:19:23;;;;;;;3.75;2.25;;;;;;;15.47;35.75;94158.25;4965487;28;20137;-80
2023/05/02 11:21:49;;;;;;;2.65;2.20;;;;;;;15.38;36.24;94152.19;4976424;28;20049;-81
2023/05/02 11:24:41;;;;;;;4.65;2.22;;;;;;;15.46;36.10;94159.38;4974519;28;20034;-81
2023/05/02 11:27:28;;;;;;;2.95;2.10;;;;;;;15.70;35.85;94148.63;4968472;28;20956;-80
2023/05/02 11:29:55;;;;;;;3.05;2.20;;;;;;;15.60;35.83;94138.38;4976836;28;20374;-79
2023/05/02 11:32:24;;;;;;;4.00;2.05;;;;;;;15.82;36.21;94145.16;4972254;28;20514;-81
2023/05/02 11:34:51;;;;;;;3.60;1.77;;;;;;;16.17;36.50;94138.16;4976581;28;20117;-80
2023/05/02 11:37:18;;;;;;;3.17;2.60;;;;;;;15.76;35.52;94139.25;4980409;28;20042;-81
2023/05/02 11:39:45;;;;;;;8.10;2.85;;;;;;;15.73;36.22;94137.25;4972889;28;20066;-80